createdAt,value
2017-12-02T00:00:07.581Z,24.83
2017-12-02T00:02:38.578Z,21.13
2017-12-02T00:05:07.728Z,25.93
2017-12-02T00:07:37.686Z,26.20
2017-12-02T00:10:07.558Z,24.30
2017-12-02T00:12:37.513Z,24.97
2017-12-02T00:15:06.819Z,27.23
2017-12-02T00:17:35.955Z,29.87
2017-12-02T00:20:05.153Z,21.87
2017-12-02T00:22:35.475Z,24.07
2017-12-02T00:25:05.593Z,27.00
2017-12-02T00:27:37.626Z,23.83
2017-12-02T00:30:06.614Z,25.90
2017-12-02T00:32:35.751Z,24.07
2017-12-02T00:35:05.807Z,22.43
2017-12-02T00:37:34.720Z,22.77
2017-12-02T00:40:03.672Z,25.93
2017-12-02T00:42:34.616Z,32.97
2017-12-02T00:45:03.652Z,26.77
2017-12-02T00:47:32.555Z,25.57
2017-12-02T00:50:01.588Z,22.20
2017-12-02T00:52:30.510Z,18.73
2017-12-02T00:54:59.370Z,22.53
2017-12-02T00:57:28.359Z,17.67
2017-12-02T00:59:57.330Z,25.37
2017-12-02T01:02:26.281Z,43.33
2017-12-02T01:04:56.300Z,30.67
2017-12-02T01:07:25.115Z,28.63
2017-12-02T01:09:54.054Z,24.50
2017-12-02T01:12:24.051Z,33.33
2017-12-02T01:14:52.882Z,25.03
2017-12-02T01:17:21.777Z,22.17
2017-12-02T01:19:55.996Z,32.40
2017-12-02T01:22:24.854Z,37.83
2017-12-02T01:24:53.737Z,23.80
2017-12-02T01:27:22.650Z,26.77
2017-12-02T01:29:51.474Z,24.77
2017-12-02T01:32:20.602Z,29.10
2017-12-02T01:34:51.730Z,25.23
2017-12-02T01:37:20.802Z,33.80
2017-12-02T01:39:50.736Z,26.17
2017-12-02T01:42:20.675Z,27.60
2017-12-02T01:44:49.617Z,31.57
2017-12-02T01:47:18.660Z,25.47
2017-12-02T01:49:47.856Z,21.30
2017-12-02T01:52:22.756Z,23.73
2017-12-02T01:54:51.847Z,20.77
2017-12-02T01:57:20.842Z,35.10
2017-12-02T01:59:49.857Z,18.97
2017-12-02T02:02:18.879Z,32.97
2017-12-02T02:04:47.865Z,21.67
2017-12-02T02:07:16.955Z,29.03
2017-12-02T02:09:47.160Z,24.80
2017-12-02T02:12:19.968Z,27.13
2017-12-02T02:14:54.959Z,33.53
2017-12-02T02:17:24.975Z,27.00
2017-12-02T02:19:55.638Z,21.43
2017-12-02T02:22:24.544Z,29.50
2017-12-02T02:24:53.786Z,30.17
2017-12-02T02:27:23.084Z,26.57
2017-12-02T02:29:52.099Z,23.20
2017-12-02T02:32:22.011Z,30.60
2017-12-02T02:34:53.092Z,23.47
2017-12-02T02:37:22.152Z,30.63
2017-12-02T02:39:52.118Z,41.07
2017-12-02T02:42:21.203Z,32.63
2017-12-02T02:44:50.202Z,23.10
2017-12-02T02:47:19.740Z,24.03
2017-12-02T02:49:50.605Z,19.13
2017-12-02T02:52:19.690Z,32.13
2017-12-02T02:54:49.507Z,28.90
2017-12-02T02:57:21.239Z,32.50
2017-12-02T02:59:50.404Z,28.73
2017-12-02T03:02:19.462Z,28.40
2017-12-02T03:04:50.190Z,43.57
2017-12-02T03:07:19.218Z,28.87
2017-12-02T03:09:48.417Z,25.80
2017-12-02T03:12:20.865Z,25.33
2017-12-02T03:14:51.848Z,28.67
2017-12-02T03:17:21.196Z,25.33
2017-12-02T03:19:51.189Z,20.27
2017-12-02T03:22:20.313Z,26.30
2017-12-02T03:24:50.452Z,27.80
2017-12-02T03:27:21.623Z,20.97
2017-12-02T03:29:50.772Z,23.47
2017-12-02T03:32:19.887Z,23.70
2017-12-02T03:34:51.937Z,34.33
2017-12-02T03:37:21.222Z,31.57
2017-12-02T03:39:51.026Z,27.60
2017-12-02T03:42:20.350Z,29.53
2017-12-02T03:44:49.484Z,30.43
2017-12-02T03:47:19.520Z,29.97
2017-12-02T03:52:24.026Z,26.07
2017-12-02T03:54:54.150Z,29.20
2017-12-02T03:57:24.209Z,28.47
2017-12-02T03:59:53.608Z,28.63
2017-12-02T04:02:22.639Z,29.47
2017-12-02T04:04:53.397Z,25.10
2017-12-02T04:07:23.437Z,24.80
2017-12-02T04:09:52.630Z,31.60
2017-12-02T04:12:21.953Z,23.90
2017-12-02T04:14:51.023Z,24.70
2017-12-02T04:17:21.011Z,27.40
2017-12-02T04:19:51.948Z,35.83
2017-12-02T04:22:21.228Z,22.60
2017-12-02T04:24:51.171Z,29.30
2017-12-02T04:27:20.513Z,19.67
2017-12-02T04:29:49.819Z,25.83
2017-12-02T04:32:19.080Z,18.03
2017-12-02T04:34:48.394Z,21.57
2017-12-02T04:37:18.435Z,25.60
2017-12-02T04:39:47.625Z,21.00
2017-12-02T04:42:16.777Z,21.33
2017-12-02T04:44:45.977Z,28.50
2017-12-02T04:47:15.159Z,32.77
2017-12-02T04:49:44.475Z,24.03
2017-12-02T04:52:14.594Z,19.50
2017-12-02T04:54:46.197Z,31.40
2017-12-02T04:57:15.286Z,29.50
2017-12-02T04:59:44.281Z,36.23
2017-12-02T05:02:16.884Z,21.00
2017-12-02T05:04:46.837Z,22.93
2017-12-02T05:07:16.142Z,25.87
2017-12-02T05:09:45.182Z,25.13
2017-12-02T05:12:14.175Z,24.57
2017-12-02T05:14:43.213Z,27.23
2017-12-02T05:17:13.947Z,22.20
2017-12-02T05:19:42.852Z,29.73
2017-12-02T05:22:11.819Z,26.23
2017-12-02T05:24:43.581Z,23.70
2017-12-02T05:27:12.558Z,31.00
2017-12-02T05:29:41.665Z,24.10
2017-12-02T05:32:10.700Z,33.57
2017-12-02T05:34:39.627Z,24.47
2017-12-02T05:37:08.694Z,26.70
2017-12-02T05:39:37.929Z,25.33
2017-12-02T05:42:06.866Z,16.50
2017-12-02T05:44:35.837Z,18.33
2017-12-02T05:47:04.823Z,25.93
2017-12-02T05:49:33.840Z,22.77
2017-12-02T05:52:02.792Z,27.63
2017-12-02T05:54:33.922Z,29.57
2017-12-02T05:57:02.938Z,18.93
2017-12-02T05:59:31.990Z,22.33
2017-12-02T06:02:01.875Z,27.20
2017-12-02T06:04:30.932Z,23.83
2017-12-02T06:06:59.880Z,17.87
2017-12-02T06:09:29.134Z,21.60
2017-12-02T06:11:58.143Z,21.57
2017-12-02T06:14:28.673Z,26.10
2017-12-02T06:16:57.728Z,25.30
2017-12-02T06:19:26.712Z,34.27
2017-12-02T06:21:55.732Z,35.00
2017-12-02T06:24:24.862Z,27.80
2017-12-02T06:26:53.945Z,30.40
2017-12-02T06:29:22.898Z,54.37
2017-12-02T06:31:52.061Z,49.63
2017-12-02T06:34:21.105Z,27.93
2017-12-02T06:36:50.095Z,21.73
2017-12-02T06:39:19.071Z,22.07
2017-12-02T06:41:48.105Z,22.63
2017-12-02T06:44:17.194Z,25.03
2017-12-02T06:46:47.035Z,30.00
2017-12-02T06:49:16.009Z,28.87
2017-12-02T06:51:45.044Z,22.93
2017-12-02T06:56:48.588Z,22.90
2017-12-02T06:59:17.576Z,24.33
2017-12-02T07:01:46.613Z,17.23
2017-12-02T07:04:15.767Z,19.70
2017-12-02T07:06:44.804Z,19.83
2017-12-02T07:09:13.913Z,25.33
2017-12-02T07:11:43.006Z,13.10
2017-12-02T07:14:12.088Z,14.93
2017-12-02T07:16:43.033Z,25.47
2017-12-02T07:19:12.042Z,17.53
2017-12-02T07:21:41.039Z,17.20
2017-12-02T07:24:10.074Z,27.37
2017-12-02T07:26:39.226Z,18.63
2017-12-02T07:29:10.267Z,15.40
2017-12-02T07:31:39.426Z,20.13
2017-12-02T07:34:09.490Z,23.20
2017-12-02T07:36:38.515Z,14.37
2017-12-02T07:39:07.815Z,24.97
2017-12-02T07:41:36.920Z,23.77
2017-12-02T07:44:06.997Z,20.77
2017-12-02T07:46:36.091Z,17.03
2017-12-02T07:49:11.949Z,18.67
2017-12-02T07:51:41.148Z,13.03
2017-12-02T07:54:11.876Z,19.67
2017-12-02T07:56:42.002Z,16.90
2017-12-02T07:59:12.105Z,15.10
2017-12-02T08:01:41.261Z,22.57
2017-12-02T08:04:12.316Z,18.97
2017-12-02T08:06:41.497Z,18.47
2017-12-02T08:09:11.593Z,53.27
2017-12-02T08:11:41.799Z,21.60
2017-12-02T08:14:10.882Z,28.43
2017-12-02T08:16:39.934Z,16.50
2017-12-02T08:19:09.950Z,24.13
2017-12-02T08:21:38.919Z,16.33
2017-12-02T08:24:07.876Z,26.20
2017-12-02T08:26:37.661Z,17.53
2017-12-02T08:29:06.655Z,16.90
2017-12-02T08:31:35.617Z,19.13
2017-12-02T08:34:04.711Z,23.43
2017-12-02T08:36:33.734Z,27.10
2017-12-02T08:39:02.732Z,17.00
2017-12-02T08:41:32.753Z,15.37
2017-12-02T08:44:01.793Z,18.50
2017-12-02T08:46:30.805Z,13.30
2017-12-02T08:49:00.950Z,10.87
2017-12-02T08:51:29.920Z,12.17
2017-12-02T08:53:58.814Z,19.70
2017-12-02T08:56:27.792Z,12.70
2017-12-02T08:58:56.802Z,14.00
2017-12-02T09:01:25.772Z,22.90
2017-12-02T09:03:54.853Z,14.13
2017-12-02T09:06:23.849Z,21.67
2017-12-02T09:08:52.755Z,12.50
2017-12-02T09:13:56.574Z,25.80
2017-12-02T09:16:25.602Z,11.83
2017-12-02T09:18:57.084Z,13.27
2017-12-02T09:21:26.087Z,28.53
2017-12-02T09:23:55.042Z,14.23
2017-12-02T09:26:25.192Z,11.30
2017-12-02T09:28:54.155Z,15.17
2017-12-02T09:31:23.068Z,16.23
2017-12-02T09:33:52.070Z,18.40
2017-12-02T09:36:21.054Z,14.13
2017-12-02T09:38:50.029Z,18.13
2017-12-02T09:41:20.908Z,15.77
2017-12-02T09:43:50.059Z,20.60
2017-12-02T09:46:21.398Z,20.53
2017-12-02T09:54:03.415Z,23.93
2017-12-02T09:56:40.285Z,12.13
2017-12-02T09:59:09.489Z,14.50
2017-12-02T10:01:38.730Z,15.23
2017-12-02T10:04:08.287Z,22.53
2017-12-02T10:06:38.307Z,15.63
2017-12-02T10:09:07.775Z,14.13
2017-12-02T10:11:37.182Z,20.70
2017-12-02T10:16:41.287Z,20.27
2017-12-02T10:19:10.733Z,11.50
2017-12-02T10:21:41.144Z,20.07
2017-12-02T10:24:10.456Z,19.93
2017-12-02T10:26:40.844Z,16.47
2017-12-02T10:29:10.332Z,19.07
2017-12-02T10:31:41.011Z,14.33
2017-12-02T10:34:10.424Z,31.67
2017-12-02T10:36:41.323Z,20.47
2017-12-02T10:39:10.815Z,14.50
2017-12-02T10:41:40.116Z,17.47
2017-12-02T10:46:44.021Z,19.97
2017-12-02T10:49:13.270Z,19.13
2017-12-02T10:51:43.824Z,12.40
2017-12-02T10:54:12.919Z,14.60
2017-12-02T10:56:43.658Z,10.03
2017-12-02T10:59:12.979Z,9.97
2017-12-02T11:01:43.083Z,16.20
2017-12-02T11:04:12.122Z,9.43
2017-12-02T11:06:41.108Z,9.80
2017-12-02T11:09:10.157Z,18.13
2017-12-02T11:11:39.154Z,10.73
2017-12-02T11:14:09.007Z,17.77
2017-12-02T11:16:38.306Z,9.17
2017-12-02T11:19:07.402Z,15.43
2017-12-02T11:21:39.019Z,40.83
2017-12-02T11:24:09.244Z,16.87
2017-12-02T11:26:38.520Z,13.77
2017-12-02T11:29:07.711Z,17.90
2017-12-02T11:31:38.038Z,12.30
2017-12-02T11:34:10.908Z,12.63
2017-12-02T11:36:40.434Z,11.00
2017-12-02T11:39:10.165Z,13.60
2017-12-02T11:41:39.695Z,19.70
2017-12-02T11:44:09.344Z,12.87
2017-12-02T11:46:38.861Z,12.33
2017-12-02T11:51:44.700Z,16.40
2017-12-02T11:54:13.876Z,9.20
2017-12-02T11:56:43.437Z,16.30
2017-12-02T11:59:15.166Z,17.47
2017-12-02T12:01:46.020Z,12.67
2017-12-02T12:04:15.601Z,16.00
2017-12-02T12:06:45.257Z,20.20
2017-12-02T12:09:14.717Z,12.83
2017-12-02T12:11:43.781Z,13.50
2017-12-02T12:14:13.300Z,14.57
2017-12-02T12:16:44.587Z,18.20
2017-12-02T12:19:15.505Z,18.43
2017-12-02T12:21:44.727Z,13.90
2017-12-02T12:24:14.128Z,23.67
2017-12-02T12:26:43.368Z,30.47
2017-12-02T12:29:12.667Z,26.07
2017-12-02T12:31:42.646Z,18.33
2017-12-02T12:34:12.107Z,23.10
2017-12-02T12:36:41.239Z,13.20
2017-12-02T12:39:12.227Z,15.50
2017-12-02T12:41:41.365Z,14.10
2017-12-02T12:44:12.470Z,16.13
2017-12-02T12:46:42.738Z,18.87
2017-12-02T12:49:11.988Z,13.43
2017-12-02T12:51:43.208Z,19.00
2017-12-02T12:54:12.539Z,11.87
2017-12-02T12:56:41.884Z,18.70
2017-12-02T12:59:12.732Z,18.00
2017-12-02T13:01:42.269Z,19.70
2017-12-02T13:04:11.535Z,17.60
2017-12-02T13:06:41.798Z,23.87
2017-12-02T13:09:12.294Z,19.63
2017-12-02T13:11:41.453Z,18.30
2017-12-02T13:14:10.555Z,28.37
2017-12-02T13:16:40.329Z,21.50
2017-12-02T13:19:09.422Z,32.80
2017-12-02T13:21:38.472Z,18.57
2017-12-02T13:24:07.461Z,16.90
2017-12-02T13:26:36.717Z,13.67
2017-12-02T13:29:06.892Z,14.53
2017-12-02T13:31:35.796Z,14.23
2017-12-02T13:34:04.741Z,16.30
2017-12-02T13:36:33.887Z,31.03
2017-12-02T13:39:04.477Z,20.00
2017-12-02T13:41:36.712Z,28.40
2017-12-02T13:44:06.146Z,30.83
2017-12-02T13:46:36.231Z,29.20
2017-12-02T13:49:07.547Z,41.57
2017-12-02T13:51:38.065Z,55.30
2017-12-02T13:54:07.525Z,45.43
2017-12-02T13:56:38.398Z,38.33
2017-12-02T13:59:09.125Z,31.10
2017-12-02T14:01:38.368Z,48.53
2017-12-02T14:04:07.943Z,35.57
2017-12-02T14:06:37.268Z,29.17
2017-12-02T14:09:06.955Z,53.20
2017-12-02T14:11:38.663Z,42.47
2017-12-02T14:14:09.548Z,32.53
2017-12-02T14:16:38.635Z,38.93
2017-12-02T14:19:08.216Z,57.00
2017-12-02T14:21:38.333Z,34.97
2017-12-02T14:24:07.874Z,38.10
2017-12-02T14:26:38.497Z,30.43
2017-12-02T14:29:08.635Z,29.07
2017-12-02T14:31:38.150Z,29.50
2017-12-02T14:34:09.384Z,30.37
2017-12-02T14:36:38.746Z,32.47
2017-12-02T14:39:07.783Z,47.00
2017-12-02T14:41:37.399Z,63.63
2017-12-02T14:44:17.981Z,38.67
2017-12-02T14:46:50.394Z,34.27
2017-12-02T14:49:19.834Z,29.67
2017-12-02T14:51:48.991Z,33.00
2017-12-02T14:54:20.804Z,34.60
2017-12-02T14:56:50.083Z,32.57
2017-12-02T14:59:19.291Z,38.33
2017-12-02T15:01:50.639Z,27.70
2017-12-02T15:04:19.609Z,29.63
2017-12-02T15:06:48.727Z,26.47
2017-12-02T15:09:18.341Z,23.77
2017-12-02T15:11:48.367Z,30.00
2017-12-02T15:14:17.271Z,31.30
2017-12-02T15:16:46.720Z,27.73
2017-12-02T15:19:15.653Z,33.17
2017-12-02T15:21:46.132Z,22.10
2017-12-02T15:26:50.003Z,20.03
2017-12-02T15:29:19.679Z,20.33
2017-12-02T15:31:50.118Z,20.70
2017-12-02T15:34:19.590Z,23.53
2017-12-02T15:36:49.130Z,14.23
2017-12-02T15:39:19.320Z,13.03
2017-12-02T15:41:48.520Z,21.77
2017-12-02T15:44:18.044Z,21.37
2017-12-02T15:46:47.629Z,22.20
2017-12-02T15:49:16.876Z,26.10
2017-12-02T15:51:46.090Z,19.83
2017-12-02T15:54:15.336Z,16.50
2017-12-02T15:56:44.558Z,26.40
2017-12-02T15:59:14.956Z,22.33
2017-12-02T16:01:44.785Z,26.87
2017-12-02T16:04:14.350Z,42.73
2017-12-02T16:09:19.789Z,27.83
2017-12-02T16:11:49.525Z,33.43
2017-12-02T16:14:19.660Z,29.83
2017-12-02T16:16:49.125Z,20.97
2017-12-02T16:19:18.489Z,17.03
2017-12-02T16:21:49.795Z,23.63
2017-12-02T16:24:19.821Z,28.03
2017-12-02T16:26:49.359Z,35.40
2017-12-02T16:29:18.924Z,24.97
2017-12-02T16:31:48.462Z,14.63
2017-12-02T16:34:17.663Z,12.40
2017-12-02T16:36:47.828Z,16.47
2017-12-02T16:39:17.798Z,9.00
2017-12-02T16:41:47.565Z,11.13
2017-12-02T16:44:16.908Z,18.60
2017-12-02T16:46:46.298Z,15.10
2017-12-02T16:49:16.493Z,12.30
2017-12-02T16:51:47.694Z,27.40
2017-12-02T16:54:17.981Z,16.73
2017-12-02T16:56:47.610Z,11.63
2017-12-02T16:59:19.508Z,10.73
2017-12-02T17:01:48.721Z,14.90
2017-12-02T17:04:18.293Z,26.97
2017-12-02T17:06:49.695Z,24.67
2017-12-02T17:09:19.589Z,22.27
2017-12-02T17:11:48.765Z,29.70
2017-12-02T17:14:18.157Z,34.10
2017-12-02T17:16:47.500Z,31.57
2017-12-02T17:19:17.106Z,33.77
2017-12-02T17:21:46.292Z,24.70
2017-12-02T17:24:15.531Z,26.03
2017-12-02T17:26:45.266Z,20.60
2017-12-02T17:29:16.368Z,28.00
2017-12-02T17:31:46.864Z,25.27
2017-12-02T17:36:54.924Z,27.53
2017-12-02T17:39:24.365Z,30.57
2017-12-02T17:44:30.240Z,28.53
2017-12-02T17:46:59.867Z,46.87
2017-12-02T17:49:30.209Z,44.77
2017-12-02T17:51:59.359Z,28.37
2017-12-02T17:54:29.892Z,28.57
2017-12-02T17:57:00.898Z,37.53
2017-12-02T17:59:29.885Z,39.00
2017-12-02T18:01:58.926Z,48.57
2017-12-02T18:04:28.777Z,41.03
2017-12-02T18:06:57.791Z,30.03
2017-12-02T18:09:27.560Z,34.67
2017-12-02T18:11:57.185Z,15.53
2017-12-02T18:14:27.022Z,14.37
2017-12-02T18:16:57.138Z,17.33
2017-12-02T18:22:01.059Z,10.67
2017-12-02T18:24:30.926Z,11.10
2017-12-02T18:27:00.284Z,14.17
2017-12-02T18:29:29.268Z,8.83
2017-12-02T18:31:58.382Z,25.43
2017-12-02T18:34:27.764Z,7.80
2017-12-02T18:36:57.283Z,8.27
2017-12-02T18:39:26.653Z,11.80
2017-12-02T18:42:00.294Z,8.13
2017-12-02T18:44:31.597Z,10.40
2017-12-02T18:47:02.716Z,8.13
2017-12-02T18:49:31.617Z,7.30
2017-12-02T18:52:02.603Z,12.83
2017-12-02T18:54:32.611Z,10.43
2017-12-02T18:57:02.338Z,9.97
2017-12-02T18:59:37.158Z,12.60
2017-12-02T19:02:06.265Z,11.03
2017-12-02T19:04:36.168Z,14.30
2017-12-02T19:07:06.145Z,20.53
2017-12-02T19:09:35.349Z,17.93
2017-12-02T19:12:04.414Z,27.70
2017-12-02T19:14:35.892Z,23.20
2017-12-02T19:17:05.093Z,25.30
2017-12-02T19:19:34.187Z,31.17
2017-12-02T19:22:05.021Z,28.10
2017-12-02T19:24:34.314Z,27.30
2017-12-02T19:27:04.441Z,22.30
2017-12-02T19:29:33.474Z,28.23
2017-12-02T19:32:02.564Z,26.43
2017-12-02T19:34:31.613Z,31.10
2017-12-02T19:37:02.702Z,32.63
2017-12-02T19:39:31.864Z,44.47
2017-12-02T19:42:01.108Z,19.07
2017-12-02T19:47:04.122Z,15.23
2017-12-02T19:49:33.129Z,17.07
2017-12-02T19:52:02.299Z,17.23
2017-12-02T19:54:32.380Z,18.87
2017-12-02T19:57:01.720Z,13.57
2017-12-02T19:59:30.877Z,15.07
2017-12-02T20:02:00.940Z,11.33
2017-12-02T20:04:30.118Z,13.30
2017-12-02T20:06:59.258Z,15.40
2017-12-02T20:09:29.411Z,20.53
2017-12-02T20:11:58.780Z,17.07
2017-12-02T20:14:28.680Z,20.47
2017-12-02T20:17:00.387Z,16.00
2017-12-02T20:19:29.626Z,14.43
2017-12-02T20:21:59.655Z,12.50
2017-12-02T20:24:29.667Z,14.00
2017-12-02T20:26:58.862Z,24.90
2017-12-02T20:29:28.375Z,13.37
2017-12-02T20:31:59.981Z,17.87
2017-12-02T20:34:28.982Z,18.03
2017-12-02T20:36:58.380Z,20.10
2017-12-02T20:39:27.579Z,26.50
2017-12-02T20:41:56.544Z,21.57
2017-12-02T20:44:25.463Z,27.30
2017-12-02T20:46:54.557Z,24.53
2017-12-02T20:49:23.553Z,22.40
2017-12-02T20:51:53.367Z,24.23
2017-12-02T20:56:59.435Z,23.10
2017-12-02T20:59:28.558Z,23.70
2017-12-02T21:01:58.761Z,22.80
2017-12-02T21:04:27.751Z,25.67
2017-12-02T21:06:57.603Z,17.53
2017-12-02T21:09:27.991Z,20.50
2017-12-02T21:12:00.063Z,19.87
2017-12-02T21:14:29.985Z,23.20
2017-12-02T21:16:58.963Z,20.33
2017-12-02T21:22:02.875Z,23.60
2017-12-02T21:24:32.869Z,19.57
2017-12-02T21:27:03.788Z,29.03
2017-12-02T21:29:33.009Z,25.83
2017-12-02T21:32:02.748Z,28.43
2017-12-02T21:34:33.157Z,23.03
2017-12-02T21:37:02.381Z,25.80
2017-12-02T21:39:32.175Z,22.50
2017-12-02T21:42:01.292Z,26.30
2017-12-02T21:44:30.392Z,27.17
2017-12-02T21:47:01.541Z,14.23
2017-12-02T21:49:34.625Z,13.03
2017-12-02T21:52:03.822Z,14.73
2017-12-02T21:54:33.125Z,14.77
2017-12-02T21:57:03.194Z,20.73
2017-12-02T21:59:32.271Z,12.80
2017-12-02T22:02:07.101Z,12.70
2017-12-02T22:04:37.189Z,11.63
2017-12-02T22:07:06.406Z,9.63
2017-12-02T22:09:35.864Z,8.30
2017-12-02T22:12:04.782Z,10.27
2017-12-02T22:14:34.798Z,11.10
2017-12-02T22:17:04.048Z,10.10
2017-12-02T22:19:33.254Z,9.90
2017-12-02T22:22:02.395Z,11.37
2017-12-02T22:24:32.469Z,11.30
2017-12-02T22:27:02.126Z,9.13
2017-12-02T22:29:31.049Z,11.07
2017-12-02T22:32:06.766Z,11.70
2017-12-02T22:34:36.819Z,19.33
2017-12-02T22:37:06.697Z,20.97
2017-12-02T22:39:35.732Z,14.90
2017-12-02T22:42:05.597Z,12.40
2017-12-02T22:44:37.557Z,12.37
2017-12-02T22:47:07.521Z,11.47
2017-12-02T22:56:25.481Z,13.80
2017-12-02T22:58:54.487Z,10.27
2017-12-02T23:01:23.912Z,11.97
2017-12-02T23:03:52.964Z,9.70
2017-12-02T23:06:23.232Z,10.63
2017-12-02T23:08:52.234Z,10.70
2017-12-02T23:11:21.418Z,10.50
2017-12-02T23:13:50.453Z,12.30
2017-12-02T23:16:19.665Z,9.50
2017-12-02T23:18:49.004Z,10.77
2017-12-02T23:21:18.065Z,14.40
2017-12-02T23:23:47.179Z,13.40
2017-12-02T23:26:16.504Z,13.00
2017-12-02T23:28:46.296Z,13.50
2017-12-02T23:31:15.328Z,14.00
2017-12-02T23:33:46.364Z,10.73
2017-12-02T23:36:15.564Z,12.43
2017-12-02T23:38:44.555Z,18.63
2017-12-02T23:41:13.639Z,14.13
2017-12-02T23:43:42.723Z,18.30
2017-12-02T23:46:11.692Z,11.63
2017-12-02T23:48:43.973Z,14.40
2017-12-02T23:51:13.301Z,15.10
2017-12-02T23:53:43.279Z,17.40
2017-12-02T23:56:13.296Z,9.83
2017-12-02T23:58:42.385Z,19.93
